Time;durP1;ratioP1;P1;durP2;ratioP2;P2;SDS_P1;SDS_P2;PMS_P1;PMS_P2;Temp;Humidity;BMP_temperature;BMP_pressure;BME280_temperature;BME280_humidity;BME280_pressure;Samples;Min_cycle;Max_cycle;Signal;HPM_P1;HPM_P2
2022/09/15 00:00:45;;;;;;;10.45;9.80;;;;;;;;;;5039605;28;20478;-63
2022/09/15 00:03:10;;;;;;;9.70;9.10;;;;;;;;;;5036940;28;20116;-63
2022/09/15 00:05:36;;;;;;;10.23;9.63;;;;;;;;;;5037839;28;20481;-64
2022/09/15 00:08:01;;;;;;;12.75;11.82;;;;;;;;;;5037794;28;20091;-64
2022/09/15 00:10:27;;;;;;;11.68;10.95;;;;;;;;;;5040733;28;20029;-64
2022/09/15 00:12:54;;;;;;;8.82;8.25;;;;;;;;;;5040901;28;20283;-64
2022/09/15 00:15:21;;;;;;;10.45;9.75;;;;;;;;;;5035717;28;20325;-63
2022/09/15 00:17:51;;;;;;;10.38;9.68;;;;;;;;;;5038560;28;20317;-62
2022/09/15 00:20:19;;;;;;;10.38;9.73;;;;;;;;;;5038348;28;20032;-62
2022/09/15 00:22:45;;;;;;;10.10;9.50;;;;;;;;;;5038550;28;20040;-61
2022/09/15 00:25:10;;;;;;;11.23;10.23;;;;;;;;;;5038943;28;20410;-62
2022/09/15 00:27:36;;;;;;;10.40;9.77;;;;;;;;;;5036610;28;20038;-62
2022/09/15 00:30:03;;;;;;;10.20;9.50;;;;;;;;;;5038396;28;20060;-62
2022/09/15 00:32:29;;;;;;;10.77;10.07;;;;;;;;;;5037235;28;20025;-62
2022/09/15 00:34:54;;;;;;;10.52;9.88;;;;;;;;;;5037493;28;20095;-62
2022/09/15 00:37:20;;;;;;;9.85;9.25;;;;;;;;;;5039360;28;20036;-62
2022/09/15 00:39:46;;;;;;;10.55;9.88;;;;;;;;;;5035199;28;20064;-62
2022/09/15 00:42:17;;;;;;;9.60;9.00;;;;;;;;;;5036436;28;20040;-62
2022/09/15 00:44:45;;;;;;;;;;;;;;;;;;5038180;28;20051;-62
2022/09/15 00:47:10;;;;;;;8.27;7.68;;;;;;;;;;5038015;28;19919;-62
2022/09/15 00:49:37;;;;;;;9.88;9.07;;;;;;;;;;5037450;28;20029;-63
2022/09/15 00:52:07;;;;;;;9.80;9.18;;;;;;;;;;5037198;28;20044;-63
2022/09/15 00:55:10;;;;;;;10.45;9.75;;;;;;;;;;5037276;28;20585;-63
2022/09/15 00:57:48;;;;;;;11.43;10.73;;;;;;;;;;4968650;28;20051;-64
2022/09/15 01:00:17;;;;;;;10.30;9.52;;;;;;;;;;5034582;28;20040;-64
2022/09/15 01:02:44;;;;;;;10.43;9.63;;;;;;;;;;5035800;28;20025;-64
2022/09/15 01:05:14;;;;;;;9.52;8.93;;;;;;;;;;5038624;28;20117;-64
2022/09/15 01:07:45;;;;;;;9.98;9.38;;;;;;;;;;5035858;28;20032;-63
2022/09/15 01:10:21;;;;;;;9.43;8.82;;;;;;;;;;5034758;28;20117;-64
2022/09/15 01:12:46;;;;;;;9.60;9.00;;;;;;;;;;5039556;28;20335;-64
2022/09/15 01:15:12;;;;;;;9.48;8.88;;;;;;;;;;5037116;28;20756;-63
2022/09/15 01:17:56;;;;;;;10.23;9.55;;;;;;;;;;5035939;28;20052;-63
2022/09/15 01:20:54;;;;;;;8.85;8.23;;;;;;;;;;5034596;28;20025;-63
2022/09/15 01:23:49;;;;;;;10.00;9.40;;;;;;;;;;5039161;28;20032;-64
2022/09/15 01:27:00;;;;;;;9.30;8.70;;;;;;;;;;5036985;28;20048;-64
2022/09/15 01:29:44;;;;;;;;;;;;;;;;;;5067890;28;20115;-64
2022/09/15 01:35:44;;;;;;;7.93;7.40;;;;;;;;;;5036604;28;20037;-64
2022/09/15 01:38:42;;;;;;;8.38;7.85;;;;;;;;;;5036156;28;20332;-64
2022/09/15 01:41:16;;;;;;;8.93;8.32;;;;;;;;;;5035920;28;20037;-64
2022/09/15 01:43:52;;;;;;;10.48;9.77;;;;;;;;;;5031585;28;20487;-65
2022/09/15 01:46:20;;;;;;;10.18;9.48;;;;;;;;;;5035415;28;20052;-65
2022/09/15 01:48:49;;;;;;;10.98;10.15;;;;;;;;;;5037521;28;20025;-65
2022/09/15 01:51:15;;;;;;;10.32;9.63;;;;;;;;;;5040905;28;20463;-65
2022/09/15 01:53:40;;;;;;;10.23;9.63;;;;;;;;;;5036855;28;20088;-65
2022/09/15 01:56:09;;;;;;;10.82;10.13;;;;;;;;;;5037506;28;20076;-66
2022/09/15 01:58:36;;;;;;;9.73;9.13;;;;;;;;;;5035941;28;20029;-66
2022/09/15 02:01:13;;;;;;;10.07;9.40;;;;;;;;;;5037505;28;20058;-66
2022/09/15 02:03:44;;;;;;;11.68;10.98;;;;;;;;;;5032188;28;20037;-65
2022/09/15 02:06:21;;;;;;;10.60;9.93;;;;;;;;;;5033267;28;20518;-65
2022/09/15 02:08:54;;;;;;;13.65;11.48;;;;;;;;;;5038883;28;20115;-65
2022/09/15 02:11:26;;;;;;;11.38;10.68;;;;;;;;;;5034321;28;20533;-64
2022/09/15 02:14:16;;;;;;;9.70;9.10;;;;;;;;;;5038073;28;20029;-64
2022/09/15 02:16:45;;;;;;;9.98;9.35;;;;;;;;;;5036113;28;20459;-65
2022/09/15 02:19:24;;;;;;;10.50;9.85;;;;;;;;;;5034590;28;20037;-64
2022/09/15 02:22:13;;;;;;;11.48;10.77;;;;;;;;;;5034708;28;20021;-62
2022/09/15 02:24:43;;;;;;;10.88;10.18;;;;;;;;;;5032341;28;20029;-63
2022/09/15 02:27:14;;;;;;;10.82;10.13;;;;;;;;;;5032230;28;20052;-63
2022/09/15 02:29:42;;;;;;;9.88;9.27;;;;;;;;;;5034305;28;20439;-63
2022/09/15 02:32:09;;;;;;;11.32;10.63;;;;;;;;;;5036870;28;20033;-63
2022/09/15 02:34:39;;;;;;;9.70;9.10;;;;;;;;;;5036042;28;20249;-63
2022/09/15 02:37:07;;;;;;;8.23;7.72;;;;;;;;;;5032816;28;20037;-63
2022/09/15 02:39:36;;;;;;;9.10;8.50;;;;;;;;;;5069082;28;20554;-64
2022/09/15 02:42:02;;;;;;;10.68;10.07;;;;;;;;;;5035399;28;20076;-63
2022/09/15 02:44:29;;;;;;;9.43;8.82;;;;;;;;;;5036319;28;20586;-63
2022/09/15 02:47:00;;;;;;;10.23;9.52;;;;;;;;;;5033577;28;20063;-63
2022/09/15 02:49:26;;;;;;;9.10;8.50;;;;;;;;;;5034721;28;20056;-64
2022/09/15 02:51:51;;;;;;;8.80;8.20;;;;;;;;;;5034635;28;20029;-63
2022/09/15 02:54:16;;;;;;;9.40;8.80;;;;;;;;;;5034358;28;20799;-64
2022/09/15 02:56:42;;;;;;;9.27;8.68;;;;;;;;;;5035768;28;20111;-64
2022/09/15 02:59:08;;;;;;;8.60;8.05;;;;;;;;;;5038256;28;20048;-63
2022/09/15 03:01:33;;;;;;;8.02;7.53;;;;;;;;;;5036329;28;20033;-63
2022/09/15 03:04:02;;;;;;;9.20;8.60;;;;;;;;;;5034672;28;20079;-65
2022/09/15 03:06:33;;;;;;;8.90;8.32;;;;;;;;;;5031705;28;20025;-64
2022/09/15 03:09:00;;;;;;;8.48;7.97;;;;;;;;;;5038357;28;20040;-65
2022/09/15 03:11:27;;;;;;;8.82;8.25;;;;;;;;;;5034310;28;20366;-65
2022/09/15 03:13:54;;;;;;;9.00;8.45;;;;;;;;;;5035462;28;20094;-64
2022/09/15 03:16:20;;;;;;;9.40;8.80;;;;;;;;;;5037799;28;20033;-63
2022/09/15 03:18:45;;;;;;;9.10;8.50;;;;;;;;;;5042976;28;20037;-63
2022/09/15 03:21:12;;;;;;;10.00;9.40;;;;;;;;;;5036897;28;20501;-64
2022/09/15 03:23:39;;;;;;;9.70;9.10;;;;;;;;;;5035049;28;20405;-65
2022/09/15 03:26:05;;;;;;;9.50;8.90;;;;;;;;;;5039491;28;20025;-65
2022/09/15 03:28:30;;;;;;;10.35;9.65;;;;;;;;;;5036159;28;20455;-64
2022/09/15 03:30:56;;;;;;;9.32;8.73;;;;;;;;;;5038618;28;20033;-64
2022/09/15 03:33:22;;;;;;;8.82;8.23;;;;;;;;;;5032488;28;20018;-64
2022/09/15 03:35:48;;;;;;;8.95;8.38;;;;;;;;;;5034031;28;20024;-64
2022/09/15 03:38:15;;;;;;;9.55;8.95;;;;;;;;;;5034887;28;20041;-63
2022/09/15 03:40:43;;;;;;;8.73;8.18;;;;;;;;;;5037762;28;20147;-64
2022/09/15 03:43:10;;;;;;;9.30;8.70;;;;;;;;;;5035813;28;20167;-64
2022/09/15 03:45:39;;;;;;;9.40;8.80;;;;;;;;;;5035814;28;20638;-64
2022/09/15 03:48:05;;;;;;;8.32;7.82;;;;;;;;;;5037991;28;20055;-64
2022/09/15 03:50:32;;;;;;;9.05;8.45;;;;;;;;;;5037319;28;20099;-64
2022/09/15 03:53:00;;;;;;;10.27;9.68;;;;;;;;;;5037931;28;20236;-64
2022/09/15 03:55:27;;;;;;;9.32;8.73;;;;;;;;;;5035138;28;20379;-65
2022/09/15 03:57:53;;;;;;;9.45;8.85;;;;;;;;;;5036668;28;20033;-65
2022/09/15 04:00:18;;;;;;;8.80;8.18;;;;;;;;;;5071341;28;20079;-65
2022/09/15 04:02:44;;;;;;;9.43;8.82;;;;;;;;;;5035796;28;20029;-64
2022/09/15 04:05:12;;;;;;;9.25;8.65;;;;;;;;;;5033805;28;20036;-65
2022/09/15 04:07:37;;;;;;;9.45;8.70;;;;;;;;;;5034936;28;20028;-65
2022/09/15 04:10:03;;;;;;;10.43;9.52;;;;;;;;;;5036114;28;20098;-65
2022/09/15 04:12:30;;;;;;;8.65;8.05;;;;;;;;;;5034606;28;20049;-65
2022/09/15 04:14:56;;;;;;;9.25;8.65;;;;;;;;;;5030891;28;20065;-64
2022/09/15 04:17:21;;;;;;;9.90;9.23;;;;;;;;;;5036448;28;20064;-64
2022/09/15 04:19:47;;;;;;;9.55;8.95;;;;;;;;;;5037838;28;20120;-64
2022/09/15 04:22:13;;;;;;;9.95;9.35;;;;;;;;;;5039045;28;20471;-65
2022/09/15 04:24:38;;;;;;;10.10;9.50;;;;;;;;;;5069403;28;20437;-64
2022/09/15 04:27:03;;;;;;;8.98;8.38;;;;;;;;;;5041897;28;20470;-64
2022/09/15 04:29:29;;;;;;;10.80;10.10;;;;;;;;;;5036135;28;20029;-64
2022/09/15 04:31:54;;;;;;;11.52;10.82;;;;;;;;;;5070507;28;20107;-64
2022/09/15 04:34:19;;;;;;;11.38;10.68;;;;;;;;;;5039208;28;20083;-64
2022/09/15 04:36:45;;;;;;;12.45;11.70;;;;;;;;;;5036394;28;20039;-64
2022/09/15 04:39:10;;;;;;;11.82;11.13;;;;;;;;;;5034395;28;20374;-64
2022/09/15 04:41:36;;;;;;;11.93;11.23;;;;;;;;;;5037632;28;20037;-64
2022/09/15 04:44:01;;;;;;;10.70;10.07;;;;;;;;;;5037846;28;20733;-65
2022/09/15 04:46:27;;;;;;;12.98;12.18;;;;;;;;;;5038639;28;20037;-64
2022/09/15 04:48:52;;;;;;;12.75;11.98;;;;;;;;;;5073404;28;20188;-64
2022/09/15 04:51:20;;;;;;;14.57;13.68;;;;;;;;;;5038892;28;20450;-64
2022/09/15 04:53:46;;;;;;;11.20;10.50;;;;;;;;;;5043514;28;20042;-65
2022/09/15 04:56:15;;;;;;;10.45;9.75;;;;;;;;;;5037935;28;20044;-65
2022/09/15 04:58:46;;;;;;;10.95;10.25;;;;;;;;;;5038440;28;20043;-65
2022/09/15 05:01:18;;;;;;;;;;;;;;;;;;5035387;28;20116;-65
2022/09/15 05:03:45;;;;;;;8.93;8.32;;;;;;;;;;5038252;28;20371;-65
2022/09/15 05:06:13;;;;;;;10.60;10.00;;;;;;;;;;5038449;28;20026;-65
2022/09/15 05:08:39;;;;;;;9.35;8.75;;;;;;;;;;5035843;28;20043;-64
2022/09/15 05:11:08;;;;;;;8.80;8.20;;;;;;;;;;5038189;28;20029;-65
2022/09/15 05:13:35;;;;;;;9.13;8.53;;;;;;;;;;5038266;28;20032;-65
2022/09/15 05:16:22;;;;;;;9.02;8.43;;;;;;;;;;5035484;28;20071;-65
2022/09/15 05:18:49;;;;;;;8.45;7.85;;;;;;;;;;5034250;28;20034;-65
2022/09/15 05:21:16;;;;;;;7.90;7.40;;;;;;;;;;5037410;28;20039;-64
2022/09/15 05:23:42;;;;;;;9.65;9.05;;;;;;;;;;5035481;28;20025;-65
2022/09/15 05:26:11;;;;;;;8.05;7.55;;;;;;;;;;5036457;28;20064;-64
2022/09/15 05:28:38;;;;;;;8.50;7.90;;;;;;;;;;5036876;28;20032;-64
2022/09/15 05:31:09;;;;;;;8.20;7.60;;;;;;;;;;5033819;28;20037;-64
2022/09/15 05:33:35;;;;;;;8.15;7.65;;;;;;;;;;5035938;28;20036;-64
2022/09/15 05:36:01;;;;;;;8.10;7.55;;;;;;;;;;5032204;28;20079;-64
2022/09/15 05:38:29;;;;;;;8.60;8.07;;;;;;;;;;5036837;28;20033;-64
2022/09/15 05:41:00;;;;;;;7.60;7.10;;;;;;;;;;5037115;28;20028;-64
2022/09/15 05:43:25;;;;;;;8.32;7.72;;;;;;;;;;5036223;28;20507;-64
2022/09/15 05:45:54;;;;;;;7.32;6.82;;;;;;;;;;5035256;28;20025;-64
2022/09/15 05:48:19;;;;;;;7.50;7.00;;;;;;;;;;5037829;28;20590;-63
2022/09/15 05:50:52;;;;;;;8.45;7.93;;;;;;;;;;5038189;28;20052;-64
2022/09/15 05:53:18;;;;;;;7.95;7.45;;;;;;;;;;5038204;28;20147;-64
2022/09/15 05:55:44;;;;;;;9.63;7.88;;;;;;;;;;5034604;28;20033;-64
2022/09/15 05:58:10;;;;;;;8.63;8.02;;;;;;;;;;5035531;28;20041;-64
2022/09/15 06:00:35;;;;;;;7.30;6.80;;;;;;;;;;5037598;28;20037;-64
2022/09/15 06:03:01;;;;;;;8.57;8.00;;;;;;;;;;5035163;28;20021;-64
2022/09/15 06:05:27;;;;;;;7.80;7.30;;;;;;;;;;5036888;28;20116;-64
2022/09/15 06:07:53;;;;;;;8.95;8.25;;;;;;;;;;5034532;28;20190;-64
2022/09/15 06:10:21;;;;;;;8.57;8.02;;;;;;;;;;5032085;28;20595;-64
2022/09/15 06:12:47;;;;;;;8.13;7.63;;;;;;;;;;5034827;28;20040;-64
2022/09/15 06:15:12;;;;;;;8.30;7.80;;;;;;;;;;5036355;28;20037;-64
2022/09/15 06:17:38;;;;;;;7.93;7.43;;;;;;;;;;5034899;28;20434;-64
2022/09/15 06:20:05;;;;;;;8.45;7.88;;;;;;;;;;5037248;28;20082;-63
2022/09/15 06:22:31;;;;;;;7.93;7.43;;;;;;;;;;5036135;28;20029;-63
2022/09/15 06:24:58;;;;;;;7.40;6.90;;;;;;;;;;5036399;28;20045;-63
2022/09/15 06:27:23;;;;;;;8.32;7.72;;;;;;;;;;5036067;28;20114;-64
2022/09/15 06:29:49;;;;;;;7.97;7.47;;;;;;;;;;5035317;28;20070;-63
2022/09/15 06:32:15;;;;;;;8.30;7.70;;;;;;;;;;5035228;28;20179;-63
2022/09/15 06:34:40;;;;;;;7.53;7.03;;;;;;;;;;5039713;28;20471;-63
2022/09/15 06:37:06;;;;;;;7.80;7.30;;;;;;;;;;5040634;28;20056;-63
2022/09/15 06:39:31;;;;;;;9.18;8.57;;;;;;;;;;5035185;28;20029;-63
2022/09/15 06:41:57;;;;;;;9.00;8.30;;;;;;;;;;5036629;28;20403;-63
2022/09/15 06:44:22;;;;;;;7.28;6.78;;;;;;;;;;5036485;28;20028;-63
2022/09/15 06:46:49;;;;;;;7.97;7.38;;;;;;;;;;5033713;28;20041;-62
2022/09/15 06:49:14;;;;;;;8.57;7.97;;;;;;;;;;5032576;28;20037;-63
2022/09/15 06:51:40;;;;;;;8.82;8.23;;;;;;;;;;5034398;28;20047;-63
2022/09/15 06:54:06;;;;;;;6.97;6.47;;;;;;;;;;5036219;28;20112;-63
2022/09/15 06:56:32;;;;;;;6.53;6.10;;;;;;;;;;5039675;28;20112;-63
2022/09/15 06:58:58;;;;;;;6.90;6.40;;;;;;;;;;5036444;28;20032;-63
2022/09/15 07:01:30;;;;;;;7.40;6.90;;;;;;;;;;5032804;28;20033;-62
2022/09/15 07:03:56;;;;;;;6.82;6.32;;;;;;;;;;5035706;28;20332;-62
2022/09/15 07:06:22;;;;;;;7.93;7.35;;;;;;;;;;5037341;28;20037;-62
2022/09/15 07:08:48;;;;;;;7.85;7.35;;;;;;;;;;5068442;28;20089;-62
2022/09/15 07:11:15;;;;;;;7.20;6.70;;;;;;;;;;5037435;28;20091;-62
2022/09/15 07:13:40;;;;;;;6.95;6.45;;;;;;;;;;5036876;28;20033;-62
2022/09/15 07:16:08;;;;;;;9.90;7.00;;;;;;;;;;5034620;28;20510;-62
2022/09/15 07:18:34;;;;;;;7.13;6.43;;;;;;;;;;5036575;28;20033;-62
2022/09/15 07:21:02;;;;;;;7.47;6.97;;;;;;;;;;5035009;28;20083;-62
2022/09/15 07:23:28;;;;;;;6.75;6.25;;;;;;;;;;5035088;28;20545;-62
2022/09/15 07:26:18;;;;;;;6.93;6.43;;;;;;;;;;5042557;28;20048;-62
2022/09/15 07:28:48;;;;;;;7.70;7.20;;;;;;;;;;5035453;28;20063;-62
2022/09/15 07:31:17;;;;;;;6.43;5.97;;;;;;;;;;5036144;28;20606;-62
2022/09/15 07:33:42;;;;;;;7.13;6.63;;;;;;;;;;5034735;28;20055;-63
2022/09/15 07:36:09;;;;;;;7.05;6.55;;;;;;;;;;5037450;28;20418;-63
2022/09/15 07:38:38;;;;;;;6.65;6.05;;;;;;;;;;5036209;28;20452;-62
2022/09/15 07:41:05;;;;;;;6.68;6.18;;;;;;;;;;5038547;28;20033;-62
2022/09/15 07:43:30;;;;;;;7.63;7.13;;;;;;;;;;5042122;28;20562;-62
2022/09/15 07:45:57;;;;;;;6.15;5.75;;;;;;;;;;5033446;28;20128;-62
2022/09/15 07:48:23;;;;;;;6.40;6.00;;;;;;;;;;5034976;28;20056;-62
2022/09/15 07:50:48;;;;;;;6.15;5.75;;;;;;;;;;5031315;28;20126;-62
2022/09/15 07:53:13;;;;;;;7.05;6.55;;;;;;;;;;5036939;28;20033;-63
2022/09/15 07:55:39;;;;;;;7.97;7.47;;;;;;;;;;5038980;28;20446;-63
2022/09/15 07:58:04;;;;;;;6.72;6.22;;;;;;;;;;5041268;28;20033;-63
2022/09/15 08:00:30;;;;;;;6.10;5.70;;;;;;;;;;5038020;28;20037;-63
2022/09/15 08:02:55;;;;;;;6.07;5.68;;;;;;;;;;5038326;28;20340;-63
2022/09/15 08:05:25;;;;;;;7.35;6.85;;;;;;;;;;5039002;28;20521;-63
2022/09/15 08:07:51;;;;;;;6.90;6.40;;;;;;;;;;5037322;28;20466;-63
2022/09/15 08:10:16;;;;;;;6.22;5.80;;;;;;;;;;5038563;28;20045;-63
2022/09/15 08:12:42;;;;;;;7.32;6.82;;;;;;;;;;5037891;28;20021;-63
2022/09/15 08:15:07;;;;;;;7.03;6.53;;;;;;;;;;5041388;28;20064;-63
2022/09/15 08:17:33;;;;;;;6.97;6.47;;;;;;;;;;5039020;28;20038;-63
2022/09/15 08:19:59;;;;;;;6.22;5.82;;;;;;;;;;5039133;28;20124;-63
2022/09/15 08:22:24;;;;;;;6.57;6.07;;;;;;;;;;5028049;28;20486;-63
2022/09/15 08:24:49;;;;;;;7.05;6.55;;;;;;;;;;5037797;28;20029;-63
2022/09/15 08:27:15;;;;;;;5.90;5.50;;;;;;;;;;5037237;28;20068;-63
2022/09/15 08:29:40;;;;;;;6.63;6.15;;;;;;;;;;5037656;28;20044;-63
2022/09/15 08:32:06;;;;;;;7.57;6.88;;;;;;;;;;5041288;28;20454;-64
2022/09/15 08:34:31;;;;;;;6.60;6.10;;;;;;;;;;5035054;28;20131;-63
2022/09/15 08:36:57;;;;;;;7.15;6.65;;;;;;;;;;5036599;28;20103;-63
2022/09/15 08:39:22;;;;;;;6.93;6.43;;;;;;;;;;5039739;28;20561;-63
2022/09/15 08:41:50;;;;;;;6.22;5.82;;;;;;;;;;5033660;28;20064;-63
2022/09/15 08:44:31;;;;;;;6.63;6.13;;;;;;;;;;5037055;28;20046;-64
2022/09/15 08:47:09;;;;;;;6.95;6.45;;;;;;;;;;5039925;28;20029;-63
2022/09/15 08:49:59;;;;;;;6.53;6.07;;;;;;;;;;5041561;28;20041;-63
2022/09/15 08:52:37;;;;;;;6.80;6.30;;;;;;;;;;5040439;28;20029;-63
2022/09/15 08:55:13;;;;;;;7.45;6.95;;;;;;;;;;5072880;28;20037;-63
2022/09/15 08:57:39;;;;;;;6.80;6.30;;;;;;;;;;5036828;28;20021;-63
2022/09/15 09:00:12;;;;;;;6.60;6.10;;;;;;;;;;5035747;28;20531;-63
2022/09/15 09:02:54;;;;;;;7.13;6.63;;;;;;;;;;5036688;28;20838;-63
2022/09/15 09:05:40;;;;;;;7.15;6.57;;;;;;;;;;5035153;28;20067;-63
2022/09/15 09:08:46;;;;;;;8.57;6.35;;;;;;;;;;5037380;28;20505;-63
2022/09/15 09:11:19;;;;;;;7.95;7.45;;;;;;;;;;4963380;28;20053;-63
2022/09/15 09:14:05;;;;;;;7.32;6.72;;;;;;;;;;5035619;28;20927;-63
2022/09/15 09:16:56;;;;;;;7.30;6.80;;;;;;;;;;5038569;28;20025;-63
2022/09/15 09:19:47;;;;;;;7.10;6.60;;;;;;;;;;5031649;28;20035;-63
2022/09/15 09:22:19;;;;;;;6.88;6.38;;;;;;;;;;5037382;28;20061;-63
2022/09/15 09:24:51;;;;;;;7.50;7.00;;;;;;;;;;5038901;28;20047;-62
2022/09/15 09:27:21;;;;;;;7.95;7.25;;;;;;;;;;5035631;28;20048;-62
2022/09/15 09:29:58;;;;;;;7.45;6.95;;;;;;;;;;5034739;28;20240;-63
2022/09/15 09:32:26;;;;;;;7.82;7.32;;;;;;;;;;5038253;28;20040;-62
2022/09/15 09:35:11;;;;;;;7.18;6.68;;;;;;;;;;5035744;28;20056;-62
2022/09/15 09:37:37;;;;;;;8.95;7.82;;;;;;;;;;5036630;28;20052;-63
2022/09/15 09:40:02;;;;;;;7.30;6.80;;;;;;;;;;5041871;28;20065;-62
2022/09/15 09:42:32;;;;;;;6.72;6.22;;;;;;;;;;5033840;28;20033;-62
2022/09/15 09:44:58;;;;;;;6.72;6.22;;;;;;;;;;5034366;28;20415;-62
2022/09/15 09:47:32;;;;;;;6.18;5.78;;;;;;;;;;5034882;28;20043;-61
2022/09/15 09:49:58;;;;;;;6.88;6.38;;;;;;;;;;5033052;28;20206;-62
2022/09/15 09:52:38;;;;;;;7.55;7.05;;;;;;;;;;5038566;28;20025;-62
2022/09/15 09:55:20;;;;;;;7.00;6.50;;;;;;;;;;5035616;28;20195;-62
2022/09/15 09:57:46;;;;;;;6.93;6.32;;;;;;;;;;5036292;28;20091;-61
2022/09/15 10:00:37;;;;;;;8.15;7.53;;;;;;;;;;5034218;28;20044;-61
2022/09/15 10:03:23;;;;;;;7.68;7.18;;;;;;;;;;5037538;28;20562;-61
2022/09/15 10:06:21;;;;;;;7.18;6.68;;;;;;;;;;5039060;28;20094;-61
2022/09/15 10:08:54;;;;;;;6.88;6.38;;;;;;;;;;5034071;28;20025;-61
2022/09/15 10:11:21;;;;;;;8.18;7.57;;;;;;;;;;5037975;28;20032;-61
2022/09/15 10:13:51;;;;;;;6.85;6.35;;;;;;;;;;5033988;28;20037;-61
2022/09/15 10:16:18;;;;;;;;;;;;;;;;;;5038636;28;20076;-61
2022/09/15 10:18:44;;;;;;;6.88;6.35;;;;;;;;;;5037827;28;20312;-61
2022/09/15 10:21:12;;;;;;;8.20;7.60;;;;;;;;;;5033153;28;20475;-60
2022/09/15 10:23:37;;;;;;;7.30;6.80;;;;;;;;;;5035163;28;20078;-61
2022/09/15 10:26:14;;;;;;;7.63;7.13;;;;;;;;;;5038603;28;20041;-61
2022/09/15 10:28:40;;;;;;;7.78;7.07;;;;;;;;;;5037474;28;20028;-60
2022/09/15 10:31:12;;;;;;;7.60;7.10;;;;;;;;;;5033931;28;20051;-61
2022/09/15 10:33:40;;;;;;;9.88;9.27;;;;;;;;;;5042737;28;20615;-60
2022/09/15 10:36:16;;;;;;;8.52;7.93;;;;;;;;;;5034064;28;19912;-60
2022/09/15 10:38:53;;;;;;;11.88;11.15;;;;;;;;;;5031436;28;20345;-59
2022/09/15 10:41:30;;;;;;;7.68;7.18;;;;;;;;;;5033141;28;20033;-59
2022/09/15 10:44:13;;;;;;;8.20;7.50;;;;;;;;;;5032856;28;20060;-59
2022/09/15 10:46:57;;;;;;;11.05;10.35;;;;;;;;;;5032048;28;20128;-59
2022/09/15 10:49:34;;;;;;;11.27;10.57;;;;;;;;;;5033652;28;20024;-59
2022/09/15 10:52:13;;;;;;;12.73;11.95;;;;;;;;;;5035936;28;20033;-59
2022/09/15 10:54:57;;;;;;;11.77;11.07;;;;;;;;;;5034329;28;20048;-59
2022/09/15 10:57:45;;;;;;;13.50;12.70;;;;;;;;;;5034373;28;20055;-59
2022/09/15 11:00:19;;;;;;;13.57;12.77;;;;;;;;;;5031373;28;20486;-59
2022/09/15 11:03:23;;;;;;;12.95;12.15;;;;;;;;;;5070070;28;20417;-59
2022/09/15 11:06:02;;;;;;;11.07;10.27;;;;;;;;;;5035408;28;20028;-59
2022/09/15 11:08:52;;;;;;;10.00;9.30;;;;;;;;;;5031960;28;20040;-59
2022/09/15 11:11:26;;;;;;;12.30;11.50;;;;;;;;;;5034547;28;20263;-58
2022/09/15 11:14:19;;;;;;;11.57;10.77;;;;;;;;;;5032233;28;20021;-59
2022/09/15 11:17:02;;;;;;;11.25;10.55;;;;;;;;;;5035954;28;20029;-58
2022/09/15 11:19:59;;;;;;;12.27;11.48;;;;;;;;;;5034988;28;20212;-61
2022/09/15 11:22:37;;;;;;;12.15;11.35;;;;;;;;;;4985229;28;20460;-58
2022/09/15 11:25:12;;;;;;;12.95;12.15;;;;;;;;;;5037758;28;20032;-59
2022/09/15 11:27:50;;;;;;;11.60;10.90;;;;;;;;;;5034149;28;20582;-59
2022/09/15 11:30:22;;;;;;;13.65;12.73;;;;;;;;;;5035729;28;20418;-58
2022/09/15 11:32:59;;;;;;;13.63;12.60;;;;;;;;;;5035792;28;20041;-58
2022/09/15 11:35:49;;;;;;;12.07;11.25;;;;;;;;;;5036137;28;20040;-59
2022/09/15 11:38:24;;;;;;;11.50;10.70;;;;;;;;;;5035822;28;20206;-59
2022/09/15 11:41:09;;;;;;;10.30;9.68;;;;;;;;;;5034906;28;20059;-59
2022/09/15 11:43:52;;;;;;;10.52;9.88;;;;;;;;;;5033443;28;20029;-58
2022/09/15 11:46:26;;;;;;;10.73;9.93;;;;;;;;;;5036841;28;20029;-59
2022/09/15 11:49:12;;;;;;;11.95;11.18;;;;;;;;;;5033997;28;20213;-58
2022/09/15 11:51:49;;;;;;;11.85;11.15;;;;;;;;;;5029296;28;20171;-59
2022/09/15 11:54:24;;;;;;;10.05;9.27;;;;;;;;;;5034874;28;20960;-60
2022/09/15 11:56:50;;;;;;;10.55;9.75;;;;;;;;;;5033985;28;20395;-59
2022/09/15 11:59:27;;;;;;;9.98;9.38;;;;;;;;;;5035139;28;20032;-59
2022/09/15 12:02:23;;;;;;;11.48;10.68;;;;;;;;;;5035425;28;20443;-59
2022/09/15 12:04:57;;;;;;;12.07;9.57;;;;;;;;;;4990918;28;20649;-60
2022/09/15 12:07:27;;;;;;;8.98;8.38;;;;;;;;;;5033614;28;20021;-59
2022/09/15 12:09:54;;;;;;;9.07;8.48;;;;;;;;;;5034713;28;20036;-63
2022/09/15 12:12:21;;;;;;;9.07;8.48;;;;;;;;;;5031969;28;20044;-59
2022/09/15 12:14:49;;;;;;;9.40;8.80;;;;;;;;;;5033791;28;20028;-59
2022/09/15 12:17:42;;;;;;;8.50;7.90;;;;;;;;;;5035486;28;20045;-59
2022/09/15 12:20:19;;;;;;;9.73;8.90;;;;;;;;;;5035866;28;20666;-58
2022/09/15 12:22:53;;;;;;;9.35;8.75;;;;;;;;;;5038526;28;20102;-60
2022/09/15 12:25:44;;;;;;;12.05;10.82;;;;;;;;;;5040023;28;20029;-59
2022/09/15 12:28:26;;;;;;;8.15;7.55;;;;;;;;;;5032345;28;20403;-58
2022/09/15 12:31:13;;;;;;;9.85;9.15;;;;;;;;;;5031346;28;20025;-58
2022/09/15 12:33:41;;;;;;;8.57;8.00;;;;;;;;;;5031132;28;20128;-58
2022/09/15 12:36:28;;;;;;;7.85;7.15;;;;;;;;;;5028118;28;20033;-58
2022/09/15 12:38:54;;;;;;;7.50;7.00;;;;;;;;;;5034831;28;20035;-58
2022/09/15 12:41:20;;;;;;;8.43;7.72;;;;;;;;;;5034985;28;20033;-59
2022/09/15 12:44:01;;;;;;;7.50;7.00;;;;;;;;;;5033559;28;20079;-59
2022/09/15 12:46:26;;;;;;;7.78;7.28;;;;;;;;;;5037869;28;20105;-59
2022/09/15 12:48:58;;;;;;;8.05;7.45;;;;;;;;;;5038613;28;20529;-59
2022/09/15 12:51:27;;;;;;;8.60;7.90;;;;;;;;;;5039454;28;20033;-59
2022/09/15 12:53:57;;;;;;;8.73;8.18;;;;;;;;;;5039296;28;20032;-59
2022/09/15 12:56:27;;;;;;;11.23;10.52;;;;;;;;;;5042302;28;20249;-59
2022/09/15 12:58:54;;;;;;;7.95;7.45;;;;;;;;;;5035549;28;20041;-58
2022/09/15 13:01:28;;;;;;;9.43;8.82;;;;;;;;;;5039749;28;20025;-60
2022/09/15 13:03:56;;;;;;;8.52;7.82;;;;;;;;;;5039325;28;20378;-59
2022/09/15 13:06:33;;;;;;;13.30;12.50;;;;;;;;;;5035942;28;20056;-58
2022/09/15 13:09:01;;;;;;;12.52;11.73;;;;;;;;;;5040751;28;20041;-58
2022/09/15 13:11:35;;;;;;;8.48;7.88;;;;;;;;;;5038541;28;20037;-59
2022/09/15 13:14:07;;;;;;;9.48;8.88;;;;;;;;;;5038528;28;20042;-59
2022/09/15 13:16:53;;;;;;;10.30;9.60;;;;;;;;;;5037274;28;20581;-59
2022/09/15 13:19:34;;;;;;;9.60;9.00;;;;;;;;;;5036599;28;20044;-59
2022/09/15 13:22:13;;;;;;;11.88;10.98;;;;;;;;;;5037182;28;20033;-59
2022/09/15 13:25:27;;;;;;;8.77;8.18;;;;;;;;;;5037462;28;20032;-58
2022/09/15 13:27:55;;;;;;;8.98;8.07;;;;;;;;;;4969058;28;20038;-58
2022/09/15 13:30:29;;;;;;;9.15;8.48;;;;;;;;;;5026559;28;20037;-58
2022/09/15 13:33:20;;;;;;;7.32;6.82;;;;;;;;;;5038718;28;20108;-58
2022/09/15 13:35:51;;;;;;;8.13;7.53;;;;;;;;;;5038309;28;20036;-58
2022/09/15 13:38:44;;;;;;;7.40;6.90;;;;;;;;;;5068326;28;20040;-59
2022/09/15 13:41:32;;;;;;;10.57;9.95;;;;;;;;;;5037829;28;20082;-59
2022/09/15 13:44:42;;;;;;;9.85;9.15;;;;;;;;;;5035755;28;20029;-59
2022/09/15 13:47:35;;;;;;;7.72;7.22;;;;;;;;;;5038982;28;20045;-59
2022/09/15 13:50:20;;;;;;;8.13;7.55;;;;;;;;;;5038426;28;20099;-59
2022/09/15 13:53:23;;;;;;;9.68;9.07;;;;;;;;;;5035128;28;20029;-64
2022/09/15 13:55:50;;;;;;;7.63;7.13;;;;;;;;;;5037022;28;20387;-64
2022/09/15 13:58:19;;;;;;;9.43;8.82;;;;;;;;;;5036344;28;20076;-63
2022/09/15 14:00:53;;;;;;;8.10;7.50;;;;;;;;;;5036344;28;20029;-64
2022/09/15 14:03:53;;;;;;;8.60;8.02;;;;;;;;;;5040169;28;20522;-64
2022/09/15 14:06:32;;;;;;;8.80;8.20;;;;;;;;;;5035857;28;20784;-64
2022/09/15 14:09:08;;;;;;;8.48;7.93;;;;;;;;;;5040005;28;20284;-64
2022/09/15 14:11:35;;;;;;;8.18;7.57;;;;;;;;;;5036539;28;20035;-64
2022/09/15 14:14:01;;;;;;;9.90;9.10;;;;;;;;;;5043964;28;20432;-64
2022/09/15 14:16:32;;;;;;;7.53;7.03;;;;;;;;;;5035894;28;20025;-65
2022/09/15 14:18:59;;;;;;;7.57;7.07;;;;;;;;;;5036574;28;20025;-64
2022/09/15 14:21:30;;;;;;;12.23;11.50;;;;;;;;;;5036562;28;20464;-64
2022/09/15 14:24:01;;;;;;;8.38;7.78;;;;;;;;;;5033052;28;20044;-64
2022/09/15 14:26:28;;;;;;;7.78;7.28;;;;;;;;;;5039846;28;20410;-64
2022/09/15 14:29:02;;;;;;;7.63;7.13;;;;;;;;;;5037124;28;20052;-64
2022/09/15 14:31:36;;;;;;;8.82;8.13;;;;;;;;;;5035961;28;20159;-63
2022/09/15 14:34:06;;;;;;;8.25;7.65;;;;;;;;;;5034555;28;20025;-64
2022/09/15 14:36:33;;;;;;;8.63;8.03;;;;;;;;;;5038749;28;20025;-62
2022/09/15 14:39:14;;;;;;;11.50;10.70;;;;;;;;;;5030675;28;20205;-63
2022/09/15 14:41:40;;;;;;;8.32;7.72;;;;;;;;;;5035551;28;20029;-63
2022/09/15 14:44:37;;;;;;;8.93;8.32;;;;;;;;;;5034189;28;20362;-63
2022/09/15 14:47:10;;;;;;;13.02;12.23;;;;;;;;;;5034874;28;20124;-63
2022/09/15 14:49:36;;;;;;;9.98;9.27;;;;;;;;;;5037203;28;20025;-62
2022/09/15 14:52:02;;;;;;;8.48;7.95;;;;;;;;;;5043674;28;20039;-63
2022/09/15 14:54:33;;;;;;;9.10;8.50;;;;;;;;;;5034437;28;20125;-64
2022/09/15 14:57:00;;;;;;;;;;;;;;;;;;5039942;28;20412;-64
2022/09/15 14:59:43;;;;;;;8.07;7.47;;;;;;;;;;5039217;28;19919;-64
2022/09/15 15:02:22;;;;;;;8.13;7.53;;;;;;;;;;5038308;28;20378;-64
2022/09/15 15:05:02;;;;;;;7.30;6.80;;;;;;;;;;5033811;28;20028;-64
2022/09/15 15:07:33;;;;;;;8.07;7.50;;;;;;;;;;5032888;28;20068;-64
2022/09/15 15:10:04;;;;;;;7.63;7.13;;;;;;;;;;5036887;28;20117;-64